Startpagina
METAR-TAF:

METAR-TAF

Vliegvelden :

Mont-De-Marsan, Frankrijk

breedte: 43-55N, lengte: 000-30W, hoogte: 62 m

Actueel weer

Dit bericht is 30 minuten geleden gemaakt, om 12:30 UTC
Wind 3 kt uit variabele richting
Temperatuur 25°C
Vochtigheid 36%
Druk 1018 hPa
Zicht 10 km of meer
geen wolken onder 1500 m en geen cumulonimbus

METAR: LFBM 101230Z AUTO VRB03KT CAVOK 25/09 Q1018 NOSIG

Tijdstip: 15:00 (13:00 UTC)

Verwachting

Dit bericht is 5 uur en het 0 minuten geleden gemaakt, om 08:00 UTC
Verwachting geldig van 10 om 09 UTC tot 11 om 09 UTC
Wind 5 kt uit het oosten
Zicht 10 km of meer
geen wolken onder 1500 m en geen cumulonimbus
Tijdelijke
van 10 om 17 UTC tot 10 om 22 UTC
Verspreide wolken op 5000 ft, Stapelwolken.
Kans 30% :
Tijdelijke
van 10 om 17 UTC tot 10 om 21 UTC
Zicht: 4500 m
Gebroken wolken op 5000 ft, Cumulonimbus.
onweer, lichte regen

TAF: LFBM 100800Z 1009/1109 09005KT CAVOK TEMPO 1017/1022 SCT050TCU PROB30 TEMPO 1017/1021 4500 -TSRA BKN050CB

Waarnemingen en weersverwachtingen van meer dan 4000 vliegvelden (METAR en TAF).

De beschikbare stations zijn de gele en rode punten op de kaart.

Ga met uw muis naar het station om de naam te zien.

Klik dan om waarnemingen en weersverwachtingen te zien.

kaart wijzigen: klik op de groene knoppen met een zwart kruis om in te zoomen, op de groene knop met een streepje om uit te zoomen of op de groene pijlen voor aangrenzende kaarten.


METAR-TAF: